Time;durP1;ratioP1;P1;durP2;ratioP2;P2;SDS_P1;SDS_P2;PMS_P1;PMS_P2;Temp;Humidity;BMP_temperature;BMP_pressure;BME280_temperature;BME280_humidity;BME280_pressure;Samples;Min_cycle;Max_cycle;Signal;HPM_P1;HPM_P2
2021/09/01 00:00:43;;;;;;;;;;;;;;;19.74;34.67;99181.34;5062929;28;20378;-75
2021/09/01 00:03:09;;;;;;;;;;;;;;;19.72;34.72;99189.69;5079809;28;19949;-74
2021/09/01 00:05:35;;;;;;;;;;;;;;;19.69;34.96;99181.09;5079515;28;20294;-73
2021/09/01 00:08:00;;;;;;;;;;;;;;;19.61;34.90;99188.22;5063033;28;20394;-74
2021/09/01 00:10:26;;;;;;;;;;;;;;;19.49;34.99;99184.28;5046235;28;19924;-75
2021/09/01 00:12:52;;;;;;;;;;;;;;;19.46;35.04;99179.25;5046234;28;19930;-74
2021/09/01 00:15:18;;;;;;;;;;;;;;;19.44;35.05;99183.97;5114818;28;20030;-75
2021/09/01 00:17:43;;;;;;;;;;;;;;;19.45;35.15;99182.97;5079176;28;19931;-77
2021/09/01 00:20:09;;;;;;;;;;;;;;;19.44;34.98;99181.28;5045986;28;19947;-76
2021/09/01 00:22:35;;;;;;;;;;;;;;;19.46;35.25;99179.25;5062534;28;19928;-75
2021/09/01 00:25:01;;;;;;;;;;;;;;;19.43;35.20;99185.03;5096226;28;19923;-75
2021/09/01 00:27:26;;;;;;;;;;;;;;;19.42;35.22;99177.91;5079448;28;19930;-74
2021/09/01 00:29:52;;;;;;;;;;;;;;;19.40;35.15;99182.66;5079347;28;19928;-75
2021/09/01 00:32:18;;;;;;;;;;;;;;;19.38;35.12;99187.44;5096477;28;20022;-75
2021/09/01 00:34:44;;;;;;;;;;;;;;;19.32;35.20;99182.75;5079095;28;19928;-76
2021/09/01 00:37:09;;;;;;;;;;;;;;;19.27;35.36;99182.47;5095936;28;20306;-77
2021/09/01 00:39:35;;;;;;;;;;;;;;;19.25;35.23;99187.22;5045853;28;19930;-76
2021/09/01 00:42:05;;;;;;;;;;;;;;;19.26;35.39;99180.78;5095920;28;20446;-75
2021/09/01 00:44:30;;;;;;;;;;;;;;;19.27;35.08;99183.31;5078741;28;19924;-74
2021/09/01 00:46:56;;;;;;;;;;;;;;;19.23;35.18;99183.84;5114275;28;19928;-76
2021/09/01 00:49:22;;;;;;;;;;;;;;;19.21;35.38;99186.72;5079376;28;19985;-75
2021/09/01 00:51:48;;;;;;;;;;;;;;;19.17;35.19;99186.25;5078447;28;20026;-76
2021/09/01 00:54:15;;;;;;;;;;;;;;;19.12;35.59;99191.38;5045746;28;19931;-76
2021/09/01 00:56:43;;;;;;;;;;;;;;;19.18;35.29;99192.50;5062908;28;19955;-76
2021/09/01 00:59:09;;;;;;;;;;;;;;;19.23;35.33;99190.13;5062475;28;19927;-74
2021/09/01 01:01:36;;;;;;;;;;;;;;;19.25;35.43;99198.03;5095544;28;19924;-74
2021/09/01 01:04:03;;;;;;;;;;;;;;;19.28;35.09;99197.69;5078798;28;19923;-75
2021/09/01 01:06:29;;;;;;;;;;;;;;;19.30;35.04;99201.06;5062701;28;19935;-75
2021/09/01 01:08:55;;;;;;;;;;;;;;;19.27;35.20;99201.44;5095971;28;20298;-76
2021/09/01 01:11:20;;;;;;;;;;;;;;;19.31;35.00;99202.75;5062035;28;19923;-75
2021/09/01 01:13:46;;;;;;;;;;;;;;;19.33;35.18;99200.69;5078759;28;19930;-75
2021/09/01 01:16:15;;;;;;;;;;;;;;;19.33;35.08;99195.25;5045185;28;19924;-74
2021/09/01 01:18:47;;;;;;;;;;;;;;;19.26;35.22;99197.03;5095568;28;19930;-74
2021/09/01 01:21:17;;;;;;;;;;;;;;;19.25;35.28;99198.03;5095544;28;19924;-73
2021/09/01 01:23:43;;;;;;;;;;;;;;;19.26;35.00;99205.19;5061844;28;19924;-74
2021/09/01 01:26:08;;;;;;;;;;;;;;;19.24;34.79;99201.78;5078417;28;19992;-75
2021/09/01 01:28:34;;;;;;;;;;;;;;;19.18;35.08;99200.63;5095714;28;19931;-75
2021/09/01 01:31:00;;;;;;;;;;;;;;;19.14;35.03;99197.47;5078983;28;19930;-76
2021/09/01 01:33:26;;;;;;;;;;;;;;;19.17;35.17;99193.53;5078609;28;19924;-75
2021/09/01 01:35:51;;;;;;;;;;;;;;;19.13;35.16;99193.06;5061792;28;19930;-75
2021/09/01 01:38:17;;;;;;;;;;;;;;;19.11;35.02;99203.25;5061506;28;19935;-77
2021/09/01 01:40:43;;;;;;;;;;;;;;;19.12;35.05;99204.94;5078385;28;19924;-75
2021/09/01 01:43:09;;;;;;;;;;;;;;;19.11;35.06;99197.84;5078500;28;19935;-75
2021/09/01 01:45:38;;;;;;;;;;;;;;;19.04;35.01;99202.28;5061657;28;19924;-75
2021/09/01 01:48:05;;;;;;;;;;;;;;;19.04;35.12;99215.00;5061723;28;20117;-74
2021/09/01 01:50:30;;;;;;;;;;;;;;;18.99;35.25;99206.53;5078358;28;20032;-76
2021/09/01 01:52:56;;;;;;;;;;;;;;;18.98;35.31;99208.41;5078267;28;19927;-77
2021/09/01 01:55:22;;;;;;;;;;;;;;;19.01;35.21;99213.47;5078625;28;19966;-76
2021/09/01 01:57:48;;;;;;;;;;;;;;;18.99;35.23;99210.09;5057379;28;19924;-76
2021/09/01 02:00:14;;;;;;;;;;;;;;;19.01;34.96;99213.47;5058121;28;20341;-75
2021/09/01 02:02:41;;;;;;;;;;;;;;;19.01;35.25;99216.19;5075033;28;19950;-75
2021/09/01 02:05:07;;;;;;;;;;;;;;;19.01;35.23;99216.19;5053653;28;19924;-74
2021/09/01 02:07:32;;;;;;;;;;;;;;;19.12;35.06;99209.50;5078091;28;20022;-76
2021/09/01 02:09:58;;;;;;;;;;;;;;;19.21;35.05;99218.41;5078216;28;19963;-75
2021/09/01 02:12:31;;;;;;;;;;;;;;;19.30;34.89;99218.19;5078559;28;19949;-76
2021/09/01 02:14:57;;;;;;;;;;;;;;;19.39;34.95;99205.38;5079532;28;19935;-75
2021/09/01 02:17:23;;;;;;;;;;;;;;;19.47;34.89;99210.72;5078423;28;19973;-75
2021/09/01 02:19:48;;;;;;;;;;;;;;;19.58;34.50;99210.28;5078111;28;19928;-76
2021/09/01 02:22:16;;;;;;;;;;;;;;;19.72;34.41;99215.97;5070857;28;19924;-74
2021/09/01 02:24:41;;;;;;;;;;;;;;;19.86;34.18;99215.16;5096102;28;19931;-75
2021/09/01 02:27:07;;;;;;;;;;;;;;;19.88;34.11;99216.63;5061478;28;19924;-75
2021/09/01 02:29:33;;;;;;;;;;;;;;;20.00;34.13;99221.59;5094772;28;20069;-76
2021/09/01 02:31:59;;;;;;;;;;;;;;;20.00;34.03;99227.88;5061082;28;19928;-75
2021/09/01 02:34:24;;;;;;;;;;;;;;;20.07;33.77;99223.38;5077658;28;19932;-74
2021/09/01 02:36:50;;;;;;;;;;;;;;;20.11;33.51;99227.41;5077732;28;19955;-74
2021/09/01 02:39:16;;;;;;;;;;;;;;;20.23;33.68;99224.22;5077587;28;19928;-75
2021/09/01 02:41:42;;;;;;;;;;;;;;;20.40;33.42;99228.44;5061233;28;20424;-76
2021/09/01 02:44:08;;;;;;;;;;;;;;;20.53;32.94;99228.63;5060726;28;19924;-75
2021/09/01 02:46:33;;;;;;;;;;;;;;;20.61;32.93;99219.53;5077429;28;20030;-75
2021/09/01 02:48:59;;;;;;;;;;;;;;;20.70;32.55;99223.00;5077409;28;19924;-76
2021/09/01 02:51:25;;;;;;;;;;;;;;;20.74;32.52;99219.69;5060355;28;19974;-76
2021/09/01 02:53:51;;;;;;;;;;;;;;;20.79;32.44;99221.81;5077883;28;20399;-75
2021/09/01 02:56:16;;;;;;;;;;;;;;;20.80;32.18;99215.38;5095258;28;19931;-76
2021/09/01 02:58:42;;;;;;;;;;;;;;;20.92;32.34;99221.16;5077319;28;20341;-75
2021/09/01 03:01:08;;;;;;;;;;;;;;;20.97;32.06;99219.53;5060417;28;20015;-75
2021/09/01 03:03:34;;;;;;;;;;;;;;;21.00;31.78;99223.75;5077044;28;19931;-76
2021/09/01 03:05:59;;;;;;;;;;;;;;;20.98;31.98;99229.34;5060675;28;20410;-77
2021/09/01 03:08:25;;;;;;;;;;;;;;;21.09;31.80;99223.41;5060621;28;20379;-77
2021/09/01 03:10:51;;;;;;;;;;;;;;;21.20;31.77;99229.38;5077607;28;19928;-75
2021/09/01 03:13:17;;;;;;;;;;;;;;;21.24;31.69;99227.94;5077375;28;20019;-75
2021/09/01 03:15:42;;;;;;;;;;;;;;;21.16;31.62;99231.63;5076640;28;19931;-75
2021/09/01 03:18:08;;;;;;;;;;;;;;;21.19;31.64;99231.25;5076929;28;20481;-74
2021/09/01 03:20:34;;;;;;;;;;;;;;;21.20;31.74;99232.94;5059918;28;19924;-74
2021/09/01 03:23:00;;;;;;;;;;;;;;;21.18;31.55;99234.19;5060001;28;19924;-75
2021/09/01 03:25:25;;;;;;;;;;;;;;;21.19;31.61;99242.13;5060171;28;19924;-76
2021/09/01 03:27:51;;;;;;;;;;;;;;;21.24;31.43;99245.09;5059883;28;20404;-77
2021/09/01 03:30:17;;;;;;;;;;;;;;;21.16;31.61;99242.50;5059696;28;20456;-78
2021/09/01 03:32:43;;;;;;;;;;;;;;;21.17;31.64;99249.63;5059428;28;19959;-75
2021/09/01 03:35:09;;;;;;;;;;;;;;;21.29;31.64;99236.38;5060013;28;19924;-75
2021/09/01 03:37:34;;;;;;;;;;;;;;;21.35;31.52;99238.34;5076510;28;20022;-75
2021/09/01 03:40:01;;;;;;;;;;;;;;;21.42;31.55;99230.25;5043105;28;20339;-76
2021/09/01 03:42:27;;;;;;;;;;;;;;;21.39;31.46;99236.91;5076355;28;19923;-74
2021/09/01 03:44:52;;;;;;;;;;;;;;;21.39;31.69;99236.91;5076103;28;20022;-74
2021/09/01 03:47:18;;;;;;;;;;;;;;;21.37;31.95;99238.16;5059590;28;19931;-74
2021/09/01 03:49:44;;;;;;;;;;;;;;;21.29;32.05;99239.09;5043319;28;20298;-77
2021/09/01 03:52:10;;;;;;;;;;;;;;;21.26;32.01;99232.16;5059453;28;19969;-76
2021/09/01 03:54:35;;;;;;;;;;;;;;;21.24;32.31;99230.66;5059499;28;19952;-75
2021/09/01 03:57:01;;;;;;;;;;;;;;;21.26;32.45;99225.91;5059512;28;20026;-78
2021/09/01 03:59:28;;;;;;;;;;;;;;;21.27;32.51;99233.00;5077097;28;19928;-77
2021/09/01 04:01:53;;;;;;;;;;;;;;;21.38;32.18;99229.78;5076513;28;19931;-78
2021/09/01 04:04:19;;;;;;;;;;;;;;;21.43;32.21;99232.75;5059336;28;19946;-78
2021/09/01 04:06:45;;;;;;;;;;;;;;;21.50;32.29;99233.66;5044859;28;19931;-78
2021/09/01 04:09:11;;;;;;;;;;;;;;;21.60;32.15;99237.94;5079701;28;19924;-76
2021/09/01 04:11:37;;;;;;;;;;;;;;;21.62;32.09;99230.41;5079991;28;19924;-76
2021/09/01 04:14:03;;;;;;;;;;;;;;;21.62;32.35;99230.41;5046387;28;19931;-79
2021/09/01 04:16:29;;;;;;;;;;;;;;;21.60;32.35;99232.50;5079692;28;20305;-79
2021/09/01 04:18:55;;;;;;;;;;;;;;;21.57;32.24;99223.69;5082291;28;19924;-77
2021/09/01 04:21:20;;;;;;;;;;;;;;;21.61;32.45;99236.91;5047712;28;20381;-78
2021/09/01 04:23:46;;;;;;;;;;;;;;;21.55;32.45;99227.63;5063349;28;19977;-78
2021/09/01 04:26:12;;;;;;;;;;;;;;;21.60;32.38;99229.78;5064730;28;19977;-76
2021/09/01 04:28:38;;;;;;;;;;;;;;;21.68;32.28;99224.19;5062601;28;20023;-77
2021/09/01 04:31:04;;;;;;;;;;;;;;;21.72;32.47;99215.44;5067051;28;19924;-81
2021/09/01 04:33:30;;;;;;;;;;;;;;;21.73;32.62;99227.16;5080158;28;19986;-77
2021/09/01 04:35:56;;;;;;;;;;;;;;;21.76;32.50;99221.31;5077549;28;19969;-77
2021/09/01 04:38:21;;;;;;;;;;;;;;;21.85;32.73;99224.72;5044712;28;20310;-78
2021/09/01 04:40:47;;;;;;;;;;;;;;;21.95;32.71;99220.63;5094210;28;20044;-78
2021/09/01 04:43:13;;;;;;;;;;;;;;;22.05;32.60;99218.38;5059294;28;20043;-77
2021/09/01 04:45:39;;;;;;;;;;;;;;;22.20;32.29;99222.91;5075781;28;19928;-77
2021/09/01 04:48:04;;;;;;;;;;;;;;;22.34;32.11;99212.91;5076463;28;19932;-79
2021/09/01 04:50:30;;;;;;;;;;;;;;;22.52;31.78;99215.94;5075773;28;19953;-78
2021/09/01 04:52:56;;;;;;;;;;;;;;;22.69;31.76;99217.28;5076552;28;20022;-78
2021/09/01 04:55:22;;;;;;;;;;;;;;;22.94;31.37;99214.88;5075163;28;20298;-79
2021/09/01 04:57:48;;;;;;;;;;;;;;;23.06;31.04;99217.00;5023395;28;19924;-78
2021/09/01 05:00:14;;;;;;;;;;;;;;;23.33;31.01;99221.44;5057554;28;19935;-79
2021/09/01 05:02:40;;;;;;;;;;;;;;;23.56;30.60;99214.75;5075150;28;19931;-78
2021/09/01 05:05:06;;;;;;;;;;;;;;;23.86;30.20;99213.28;5058617;28;20375;-78
2021/09/01 05:07:32;;;;;;;;;;;;;;;24.10;29.58;99206.28;5074851;28;19924;-79
2021/09/01 05:09:57;;;;;;;;;;;;;;;24.26;28.99;99213.22;5075078;28;19984;-79
2021/09/01 05:12:26;;;;;;;;;;;;;;;24.25;28.96;99216.97;5074980;28;19924;-79
2021/09/01 05:14:55;;;;;;;;;;;;;;;24.30;28.80;99222.66;5059316;28;19924;-77
2021/09/01 05:17:21;;;;;;;;;;;;;;;24.21;28.46;99226.66;5075265;28;19924;-78
2021/09/01 05:19:47;;;;;;;;;;;;;;;24.14;28.63;99217.63;5025578;28;19924;-77
2021/09/01 05:22:16;;;;;;;;;;;;;;;24.15;28.97;99222.91;5058798;28;19928;-78
2021/09/01 05:25:03;;;;;;;;;;;;;;;24.30;28.74;99219.91;5075546;28;19977;-76
2021/09/01 05:27:31;;;;;;;;;;;;;;;24.51;28.58;99218.81;5075393;28;19935;-77
2021/09/01 05:29:56;;;;;;;;;;;;;;;24.75;28.48;99221.88;5041955;28;19924;-77
2021/09/01 05:32:23;;;;;;;;;;;;;;;24.94;28.27;99226.41;5075484;28;19923;-77
2021/09/01 05:34:49;;;;;;;;;;;;;;;25.19;28.24;99229.22;5058796;28;19928;-78
2021/09/01 05:37:15;;;;;;;;;;;;;;;25.52;27.90;99225.44;5041731;28;19928;-79
2021/09/01 05:39:41;;;;;;;;;;;;;;;25.46;27.63;99226.31;5078763;28;20337;-77
2021/09/01 05:42:07;;;;;;;;;;;;;;;25.69;27.84;99223.81;5078770;28;19924;-78
2021/09/01 05:44:33;;;;;;;;;;;;;;;26.15;26.94;99217.91;5062699;28;19947;-79
2021/09/01 05:46:59;;;;;;;;;;;;;;;26.43;26.33;99230.25;5079141;28;19924;-80
2021/09/01 05:49:25;;;;;;;;;;;;;;;26.45;26.12;99222.66;5062370;28;19924;-78
2021/09/01 05:51:51;;;;;;;;;;;;;;;26.53;26.41;99219.63;5046147;28;19924;-78
2021/09/01 05:54:17;;;;;;;;;;;;;;;26.65;26.37;99211.47;5045726;28;19985;-78
2021/09/01 05:56:44;;;;;;;;;;;;;;;26.78;26.03;99213.19;5045457;28;19975;-78
2021/09/01 05:59:10;;;;;;;;;;;;;;;26.88;25.93;99216.22;5062156;28;19924;-78
2021/09/01 06:01:37;;;;;;;;;;;;;;;26.97;25.12;99219.47;5061688;28;19931;-78
2021/09/01 06:04:03;;;;;;;;;;;;;;;26.98;25.58;99216.50;5078525;28;19931;-79
2021/09/01 06:06:29;;;;;;;;;;;;;;;27.06;25.25;99220.84;5062313;28;19928;-79
2021/09/01 06:08:58;;;;;;;;;;;;;;;27.25;25.14;99216.16;5078646;28;19931;-77
2021/09/01 06:11:24;;;;;;;;;;;;;;;27.36;24.52;99216.19;5078265;28;19932;-78
2021/09/01 06:13:50;;;;;;;;;;;;;;;27.04;24.48;99222.97;5096937;28;19924;-78
2021/09/01 06:16:16;;;;;;;;;;;;;;;27.07;24.41;99217.00;5061813;28;19955;-77
2021/09/01 06:18:42;;;;;;;;;;;;;;;27.12;24.24;99222.69;5044969;28;19967;-78
2021/09/01 06:21:07;;;;;;;;;;;;;;;27.24;24.24;99220.81;5045073;28;19966;-77
2021/09/01 06:23:33;;;;;;;;;;;;;;;27.35;24.21;99217.25;5078232;28;19924;-78
2021/09/01 06:25:59;;;;;;;;;;;;;;;27.31;24.06;99216.06;5078122;28;19931;-78
2021/09/01 06:28:25;;;;;;;;;;;;;;;27.24;24.09;99225.47;5077778;28;20371;-77
2021/09/01 06:30:50;;;;;;;;;;;;;;;27.31;24.10;99226.22;5096262;28;20014;-78
2021/09/01 06:33:16;;;;;;;;;;;;;;;27.43;23.96;99228.97;5077796;28;19923;-78
2021/09/01 06:35:42;;;;;;;;;;;;;;;27.39;23.87;99225.03;5061375;28;19924;-78
2021/09/01 06:38:08;;;;;;;;;;;;;;;27.52;23.74;99224.81;5074236;28;19928;-79
2021/09/01 06:40:34;;;;;;;;;;;;;;;27.65;23.34;99221.88;5040762;28;20283;-77
2021/09/01 06:42:59;;;;;;;;;;;;;;;27.69;23.59;99220.31;5057678;28;19931;-78
2021/09/01 06:45:25;;;;;;;;;;;;;;;27.90;23.63;99223.56;5057733;28;19924;-78
2021/09/01 06:47:51;;;;;;;;;;;;;;;28.07;23.16;99210.81;5057710;28;19924;-79
2021/09/01 06:50:18;;;;;;;;;;;;;;;28.27;23.10;99214.00;5073262;28;20007;-78
2021/09/01 06:52:44;;;;;;;;;;;;;;;28.30;22.95;99218.19;5040806;28;19992;-79
2021/09/01 06:55:10;;;;;;;;;;;;;;;28.43;22.98;99211.59;5024302;28;20008;-78
2021/09/01 06:57:36;;;;;;;;;;;;;;;28.49;22.67;99205.97;5024328;28;19924;-78
2021/09/01 07:00:05;;;;;;;;;;;;;;;28.51;22.87;99205.72;5057389;28;20015;-78
2021/09/01 07:02:31;;;;;;;;;;;;;;;28.69;22.92;99200.06;5057534;28;19947;-78
2021/09/01 07:04:57;;;;;;;;;;;;;;;28.98;22.60;99203.69;5057323;28;20356;-78
2021/09/01 07:07:23;;;;;;;;;;;;;;;29.19;22.62;99210.41;5024117;28;19924;-77
2021/09/01 07:09:49;;;;;;;;;;;;;;;29.32;22.42;99202.91;5057115;28;20015;-78
2021/09/01 07:12:15;;;;;;;;;;;;;;;29.37;22.27;99201.06;5057430;28;19924;-79
2021/09/01 07:14:40;;;;;;;;;;;;;;;29.37;22.48;99194.75;5040775;28;19932;-79
2021/09/01 07:17:06;;;;;;;;;;;;;;;29.44;22.33;99204.50;5074237;28;20030;-79
2021/09/01 07:19:32;;;;;;;;;;;;;;;29.59;22.05;99200.38;5058659;28;19928;-79
2021/09/01 07:21:58;;;;;;;;;;;;;;;29.87;22.00;99207.72;5075496;28;19936;-79
2021/09/01 07:24:23;;;;;;;;;;;;;;;30.00;21.81;99210.94;5074992;28;20466;-78
2021/09/01 07:26:49;;;;;;;;;;;;;;;30.13;21.62;99204.25;5058207;28;19934;-77
2021/09/01 07:29:15;;;;;;;;;;;;;;;30.13;21.62;99206.19;5074563;28;20444;-77
2021/09/01 07:31:40;;;;;;;;;;;;;;;30.03;21.17;99203.28;5073627;28;19924;-78
2021/09/01 07:34:06;;;;;;;;;;;;;;;30.05;21.27;99196.41;5040721;28;19931;-79
2021/09/01 07:36:32;;;;;;;;;;;;;;;30.09;21.55;99205.00;5074156;28;19924;-78
2021/09/01 07:38:58;;;;;;;;;;;;;;;30.28;21.44;99200.06;5056511;28;19928;-78
2021/09/01 07:41:23;;;;;;;;;;;;;;;30.47;21.25;99204.19;5073372;28;19925;-78
2021/09/01 07:43:49;;;;;;;;;;;;;;;30.65;20.96;99203.84;5023871;28;19951;-79
2021/09/01 07:46:15;;;;;;;;;;;;;;;30.82;21.04;99195.53;5023662;28;19924;-80
2021/09/01 07:48:41;;;;;;;;;;;;;;;30.76;20.62;99196.56;5023620;28;20402;-78
2021/09/01 07:51:06;;;;;;;;;;;;;;;30.63;21.00;99197.78;5073205;28;19924;-79
2021/09/01 07:53:32;;;;;;;;;;;;;;;30.63;20.73;99197.78;5073495;28;19931;-77
2021/09/01 07:55:58;;;;;;;;;;;;;;;30.60;20.77;99198.28;5056547;28;19931;-78
2021/09/01 07:58:24;;;;;;;;;;;;;;;30.65;20.82;99194.75;5074237;28;19993;-79
2021/09/01 08:00:49;;;;;;;;;;;;;;;30.89;20.62;99187.91;5089777;28;19924;-79
2021/09/01 08:03:15;;;;;;;;;;;;;;;31.04;19.98;99186.41;5055912;28;20287;-77
2021/09/01 08:05:41;;;;;;;;;;;;;;;31.16;20.46;99185.13;5072722;28;20375;-79
2021/09/01 08:08:06;;;;;;;;;;;;;;;31.28;20.04;99176.69;5039228;28;19925;-79
2021/09/01 08:10:32;;;;;;;;;;;;;;;31.35;19.61;99180.09;5056026;28;20276;-77
2021/09/01 08:12:58;;;;;;;;;;;;;;;31.16;18.98;99176.84;5056123;28;20276;-79
2021/09/01 08:15:24;;;;;;;;;;;;;;;31.20;19.27;99180.75;5055597;28;19931;-78
2021/09/01 08:17:49;;;;;;;;;;;;;;;31.35;18.68;99171.81;5072243;28;19924;-78
2021/09/01 08:20:15;;;;;;;;;;;;;;;31.65;18.72;99176.75;5089145;28;20026;-78
2021/09/01 08:22:41;;;;;;;;;;;;;;;31.78;18.43;99169.91;5055713;28;20023;-78
2021/09/01 08:25:07;;;;;;;;;;;;;;;31.96;18.26;99171.47;5055650;28;19924;-77
2021/09/01 08:27:33;;;;;;;;;;;;;;;32.14;18.08;99167.44;5071940;28;19924;-79
2021/09/01 08:29:59;;;;;;;;;;;;;;;32.48;17.85;99170.66;5039206;28;19951;-77
2021/09/01 08:32:24;;;;;;;;;;;;;;;32.69;17.83;99157.75;5022431;28;20391;-78
2021/09/01 08:34:51;;;;;;;;;;;;;;;32.74;17.31;99148.59;5071715;28;20240;-79
2021/09/01 08:37:17;;;;;;;;;;;;;;;32.86;17.48;99154.72;5023845;28;20015;-78
2021/09/01 08:39:43;;;;;;;;;;;;;;;32.82;17.33;99151.66;5075780;28;19924;-78
2021/09/01 08:42:09;;;;;;;;;;;;;;;32.64;17.18;99144.69;5075068;28;19954;-79
2021/09/01 08:44:35;;;;;;;;;;;;;;;32.51;17.38;99139.69;5058343;28;19928;-77
2021/09/01 08:47:00;;;;;;;;;;;;;;;32.64;17.68;99154.94;5041561;28;19924;-78
2021/09/01 08:49:28;;;;;;;;;;;;;;;32.89;17.40;99141.16;5075253;28;19924;-78
2021/09/01 08:51:54;;;;;;;;;;;;;;;33.12;17.43;99139.84;5041934;28;19924;-77
2021/09/01 08:54:20;;;;;;;;;;;;;;;33.09;17.19;99134.03;5075145;28;20022;-76
2021/09/01 08:56:45;;;;;;;;;;;;;;;33.03;17.17;99135.97;5058546;28;19924;-77
2021/09/01 08:59:11;;;;;;;;;;;;;;;33.08;17.12;99132.38;5041622;28;19924;-79
2021/09/01 09:01:37;;;;;;;;;;;;;;;32.99;17.49;99134.03;5074969;28;19967;-76
2021/09/01 09:04:03;;;;;;;;;;;;;;;33.09;17.35;99132.06;5074997;28;19924;-78
2021/09/01 09:06:42;;;;;;;;;;;;;;;33.09;17.49;99118.22;5041985;28;19943;-78
2021/09/01 09:09:11;;;;;;;;;;;;;;;33.19;17.39;99119.34;5058787;28;19924;-78
2021/09/01 09:11:37;;;;;;;;;;;;;;;33.41;17.21;99124.63;5075350;28;19967;-78
2021/09/01 09:14:18;;;;;;;;;;;;;;;33.53;17.15;99120.47;5045060;28;20452;-78
2021/09/01 09:16:44;;;;;;;;;;;;;;;33.48;17.28;99128.81;5080747;28;20002;-78
2021/09/01 09:19:11;;;;;;;;;;;;;;;33.35;17.10;99113.53;5080590;28;20286;-78
2021/09/01 09:21:37;;;;;;;;;;;;;;;33.32;17.47;99114.06;5045999;28;19982;-79
2021/09/01 09:24:23;;;;;;;;;;;;;;;33.34;17.43;99113.81;5062435;28;19973;-77
2021/09/01 09:26:48;;;;;;;;;;;;;;;33.05;17.42;99108.81;5062778;28;19924;-78
2021/09/01 09:29:14;;;;;;;;;;;;;;;32.74;17.89;99109.88;5045578;28;19997;-77
2021/09/01 09:32:07;;;;;;;;;;;;;;;32.81;17.71;99100.19;5062447;28;20034;-77
2021/09/01 09:34:35;;;;;;;;;;;;;;;33.00;17.92;99102.47;5076848;28;20398;-77
2021/09/01 09:37:01;;;;;;;;;;;;;;;33.22;17.40;99099.44;5078819;28;20006;-77
2021/09/01 09:39:39;;;;;;;;;;;;;;;33.41;17.36;99089.44;5078570;28;19932;-78
2021/09/01 09:42:04;;;;;;;;;;;;;;;33.89;16.86;99086.28;5045812;28;20467;-78
2021/09/01 09:44:30;;;;;;;;;;;;;;;33.95;16.47;99080.47;5045101;28;19924;-78
2021/09/01 09:46:56;;;;;;;;;;;;;;;34.05;16.61;99082.41;5078354;28;19947;-77
2021/09/01 09:49:31;;;;;;;;;;;;;;;34.21;16.26;99074.84;5096609;28;20294;-78
2021/09/01 09:51:57;;;;;;;;;;;;;;;34.55;16.14;99064.69;5062241;28;19954;-78
2021/09/01 09:54:26;;;;;;;;;;;;;;;34.92;15.49;99068.88;5029098;28;19924;-77
2021/09/01 09:57:04;;;;;;;;;;;;;;;35.08;15.63;99063.25;5061899;28;19961;-78
2021/09/01 09:59:30;;;;;;;;;;;;;;;35.27;15.52;99064.19;5045575;28;20351;-78
2021/09/01 10:01:55;;;;;;;;;;;;;;;35.17;15.00;99050.38;5078470;28;19924;-79
2021/09/01 10:04:21;;;;;;;;;;;;;;;35.57;15.38;99056.69;5078176;28;20031;-78
2021/09/01 10:06:47;;;;;;;;;;;;;;;35.83;14.04;99063.63;5078127;28;19935;-77
2021/09/01 10:09:12;;;;;;;;;;;;;;;35.86;13.85;99060.25;5096632;28;20024;-78
2021/09/01 10:11:39;;;;;;;;;;;;;;;36.10;13.82;99054.69;5044967;28;20481;-77
2021/09/01 10:14:05;;;;;;;;;;;;;;;36.29;13.17;99051.94;5061688;28;20311;-78
2021/09/01 10:16:32;;;;;;;;;;;;;;;36.52;13.20;99046.66;5095084;28;19924;-78
2021/09/01 10:19:00;;;;;;;;;;;;;;;36.50;12.91;99049.75;5077970;28;20499;-78
2021/09/01 10:21:28;;;;;;;;;;;;;;;36.63;13.35;99057.31;5061332;28;19930;-77
2021/09/01 10:23:53;;;;;;;;;;;;;;;36.04;12.81;99052.31;5077758;28;20287;-80
2021/09/01 10:26:20;;;;;;;;;;;;;;;35.27;13.65;99048.31;5027666;28;20304;-77
2021/09/01 10:28:46;;;;;;;;;;;;;;;35.20;13.62;99053.38;5078046;28;19931;-77
2021/09/01 10:31:15;;;;;;;;;;;;;;;35.10;13.52;99055.47;5044504;28;19924;-78
2021/09/01 10:33:46;;;;;;;;;;;;;;;34.88;13.73;99048.38;5061691;28;19924;-76
2021/09/01 10:36:27;;;;;;;;;;;;;;;35.19;13.75;99046.19;5078144;28;19924;-77
2021/09/01 10:38:53;;;;;;;;;;;;;;;34.38;13.90;99039.25;5061263;28;20026;-80
2021/09/01 10:41:28;;;;;;;;;;;;;;;34.84;13.94;99038.97;5077715;28;19998;-78
2021/09/01 10:43:54;;;;;;;;;;;;;;;35.37;13.16;99030.75;5077517;28;19973;-78
2021/09/01 10:46:20;;;;;;;;;;;;;;;35.67;13.88;99026.84;5043955;28;20385;-77
2021/09/01 10:48:56;;;;;;;;;;;;;;;36.04;13.04;99027.25;5061253;28;19927;-79
2021/09/01 10:51:26;;;;;;;;;;;;;;;36.59;12.68;99033.19;5061136;28;20048;-78
2021/09/01 10:53:52;;;;;;;;;;;;;;;36.11;12.50;99024.91;5077723;28;19928;-78
2021/09/01 10:56:18;;;;;;;;;;;;;;;35.78;13.01;99030.31;5060967;28;20007;-78
2021/09/01 10:58:44;;;;;;;;;;;;;;;35.96;12.74;99018.41;5043524;28;20019;-77
2021/09/01 11:01:10;;;;;;;;;;;;;;;35.81;12.96;99010.28;5077172;28;19935;-78
2021/09/01 11:03:37;;;;;;;;;;;;;;;35.66;12.95;99013.25;5060343;28;19924;-77
2021/09/01 11:06:19;;;;;;;;;;;;;;;36.31;12.60;99019.09;5060422;28;19973;-77
2021/09/01 11:08:55;;;;;;;;;;;;;;;36.83;12.41;99013.59;5077408;28;20298;-78
2021/09/01 11:11:21;;;;;;;;;;;;;;;37.08;12.07;99015.97;5060681;28;19924;-79
2021/09/01 11:13:48;;;;;;;;;;;;;;;37.45;12.15;99007.81;5061490;28;20027;-79
2021/09/01 11:16:20;;;;;;;;;;;;;;;37.89;11.90;99013.63;5043719;28;19971;-78
2021/09/01 11:19:01;;;;;;;;;;;;;;;37.78;11.59;99012.16;5043538;28;20043;-78
2021/09/01 11:21:29;;;;;;;;;;;;;;;38.05;11.47;99013.31;5060814;28;20298;-78
2021/09/01 11:23:56;;;;;;;;;;;;;;;36.61;12.42;99009.47;5094719;28;19924;-78
2021/09/01 11:26:26;;;;;;;;;;;;;;;36.34;12.39;99004.56;5077145;28;19931;-77
2021/09/01 11:28:52;;;;;;;;;;;;;;;36.76;12.21;99000.06;5060311;28;20386;-77
2021/09/01 11:31:18;;;;;;;;;;;;;;;37.25;12.01;98997.84;5059992;28;19924;-78
2021/09/01 11:33:44;;;;;;;;;;;;;;;38.29;11.42;98987.91;5076590;28;20302;-77
2021/09/01 11:36:10;;;;;;;;;;;;;;;39.09;11.04;98989.91;5076622;28;19924;-77
2021/09/01 11:38:45;;;;;;;;;;;;;;;39.72;10.97;98989.91;5027177;28;19928;-78
2021/09/01 11:41:12;;;;;;;;;;;;;;;40.12;10.37;98999.09;5044612;28;20003;-78
2021/09/01 11:43:38;;;;;;;;;;;;;;;39.32;10.63;98996.31;5059747;28;20034;-78
2021/09/01 11:46:04;;;;;;;;;;;;;;;39.70;10.49;98987.44;5076411;28;19924;-79
2021/09/01 11:48:43;;;;;;;;;;;;;;;40.28;10.10;98997.50;5059603;28;19973;-78
2021/09/01 11:51:09;;;;;;;;;;;;;;;40.53;10.06;98984.63;5076270;28;19924;-78
2021/09/01 11:53:39;;;;;;;;;;;;;;;40.29;9.82;98999.13;5076327;28;19930;-78
2021/09/01 11:56:08;;;;;;;;;;;;;;;40.15;10.37;98980.84;5076452;28;19931;-78
2021/09/01 11:58:34;;;;;;;;;;;;;;;40.40;9.95;98984.78;5043155;28;19927;-77
2021/09/01 12:01:02;;;;;;;;;;;;;;;40.90;9.80;98985.13;5076175;28;20376;-78
2021/09/01 12:03:28;;;;;;;;;;;;;;;40.58;9.58;98988.44;5076111;28;19955;-78
2021/09/01 12:06:07;;;;;;;;;;;;;;;40.26;9.90;98980.19;5043232;28;19978;-78
2021/09/01 12:08:42;;;;;;;;;;;;;;;40.95;9.64;98979.34;5059840;28;19923;-77
2021/09/01 12:11:09;;;;;;;;;;;;;;;41.55;9.37;98979.53;5076458;28;19924;-78
2021/09/01 12:13:41;;;;;;;;;;;;;;;40.46;9.47;98980.69;5075680;28;20370;-78
2021/09/01 12:16:07;;;;;;;;;;;;;;;40.14;9.88;98974.41;5076006;28;19924;-77
2021/09/01 12:18:49;;;;;;;;;;;;;;;40.52;9.68;98971.78;5042806;28;19924;-78
2021/09/01 12:21:15;;;;;;;;;;;;;;;40.51;9.90;98969.31;5076328;28;19924;-79
2021/09/01 12:23:40;;;;;;;;;;;;;;;40.14;9.66;98962.41;5058948;28;19962;-77
2021/09/01 12:26:06;;;;;;;;;;;;;;;39.74;10.02;98960.47;5076291;28;20426;-78
2021/09/01 12:28:45;;;;;;;;;;;;;;;40.30;9.71;98953.16;5075672;28;20023;-78
2021/09/01 12:31:21;;;;;;;;;;;;;;;40.49;9.90;98961.25;5059426;28;19923;-78
2021/09/01 12:33:47;;;;;;;;;;;;;;;41.01;9.75;98943.59;5075903;28;19924;-79
2021/09/01 12:36:22;;;;;;;;;;;;;;;41.60;9.42;98949.31;5059197;28;19924;-78
2021/09/01 12:38:50;;;;;;;;;;;;;;;42.09;9.20;98946.91;5055553;28;20299;-77
2021/09/01 12:41:20;;;;;;;;;;;;;;;42.23;9.13;98946.59;5055727;28;19924;-78
2021/09/01 12:43:46;;;;;;;;;;;;;;;42.32;8.97;98930.53;5055691;28;19928;-77
2021/09/01 12:46:12;;;;;;;;;;;;;;;42.49;8.93;98931.53;5055515;28;19954;-78